sensor_id;sensor_type;location;lat;lon;timestamp;P1;durP1;ratioP1;P2;durP2;ratioP2
20478;SDS011;10398;52.490;13.434;2023-11-19T00:01:56;7.40;;;2.30;;
20478;SDS011;10398;52.490;13.434;2023-11-19T00:04:22;5.63;;;2.30;;
20478;SDS011;10398;52.490;13.434;2023-11-19T00:06:48;4.33;;;1.97;;
20478;SDS011;10398;52.490;13.434;2023-11-19T00:09:13;9.30;;;2.80;;
20478;SDS011;10398;52.490;13.434;2023-11-19T00:11:41;5.90;;;1.97;;
20478;SDS011;10398;52.490;13.434;2023-11-19T00:14:07;5.40;;;2.83;;
20478;SDS011;10398;52.490;13.434;2023-11-19T00:16:33;8.97;;;4.07;;
20478;SDS011;10398;52.490;13.434;2023-11-19T00:18:59;9.23;;;4.23;;
20478;SDS011;10398;52.490;13.434;2023-11-19T00:21:25;8.27;;;4.17;;
20478;SDS011;10398;52.490;13.434;2023-11-19T00:23:53;8.33;;;3.80;;
20478;SDS011;10398;52.490;13.434;2023-11-19T00:26:19;8.37;;;4.40;;
20478;SDS011;10398;52.490;13.434;2023-11-19T00:28:45;9.60;;;4.70;;
20478;SDS011;10398;52.490;13.434;2023-11-19T00:31:13;9.47;;;4.13;;
20478;SDS011;10398;52.490;13.434;2023-11-19T00:33:38;9.50;;;4.50;;
20478;SDS011;10398;52.490;13.434;2023-11-19T00:36:05;7.60;;;2.00;;
20478;SDS011;10398;52.490;13.434;2023-11-19T00:38:31;5.90;;;2.43;;
20478;SDS011;10398;52.490;13.434;2023-11-19T00:40:56;5.90;;;2.40;;
20478;SDS011;10398;52.490;13.434;2023-11-19T00:43:22;5.70;;;2.30;;
20478;SDS011;10398;52.490;13.434;2023-11-19T00:45:48;6.20;;;2.60;;
20478;SDS011;10398;52.490;13.434;2023-11-19T00:48:16;2.97;;;1.73;;
20478;SDS011;10398;52.490;13.434;2023-11-19T00:50:42;5.20;;;2.63;;
20478;SDS011;10398;52.490;13.434;2023-11-19T00:53:09;6.67;;;2.23;;
20478;SDS011;10398;52.490;13.434;2023-11-19T00:55:35;5.13;;;2.30;;
20478;SDS011;10398;52.490;13.434;2023-11-19T00:58:00;3.87;;;2.03;;
20478;SDS011;10398;52.490;13.434;2023-11-19T01:00:26;3.87;;;1.77;;
20478;SDS011;10398;52.490;13.434;2023-11-19T01:02:52;3.63;;;2.10;;
20478;SDS011;10398;52.490;13.434;2023-11-19T01:05:18;5.50;;;2.33;;
20478;SDS011;10398;52.490;13.434;2023-11-19T01:07:47;5.03;;;2.40;;
20478;SDS011;10398;52.490;13.434;2023-11-19T01:10:12;3.37;;;1.77;;
20478;SDS011;10398;52.490;13.434;2023-11-19T01:12:38;5.27;;;2.03;;
20478;SDS011;10398;52.490;13.434;2023-11-19T01:15:04;4.33;;;1.93;;
20478;SDS011;10398;52.490;13.434;2023-11-19T01:17:31;5.83;;;1.97;;
20478;SDS011;10398;52.490;13.434;2023-11-19T01:19:57;6.07;;;1.97;;
20478;SDS011;10398;52.490;13.434;2023-11-19T01:22:22;6.13;;;2.47;;
20478;SDS011;10398;52.490;13.434;2023-11-19T01:24:48;7.63;;;2.37;;
20478;SDS011;10398;52.490;13.434;2023-11-19T01:27:14;7.50;;;2.37;;
20478;SDS011;10398;52.490;13.434;2023-11-19T01:29:39;6.63;;;2.93;;
20478;SDS011;10398;52.490;13.434;2023-11-19T01:32:05;4.87;;;2.13;;
20478;SDS011;10398;52.490;13.434;2023-11-19T01:34:31;3.47;;;1.90;;
20478;SDS011;10398;52.490;13.434;2023-11-19T01:36:57;2.93;;;1.70;;
20478;SDS011;10398;52.490;13.434;2023-11-19T01:39:22;7.03;;;2.43;;
20478;SDS011;10398;52.490;13.434;2023-11-19T01:41:48;4.87;;;2.30;;
20478;SDS011;10398;52.490;13.434;2023-11-19T01:44:14;7.53;;;2.10;;
20478;SDS011;10398;52.490;13.434;2023-11-19T01:46:43;3.83;;;1.90;;
20478;SDS011;10398;52.490;13.434;2023-11-19T01:49:12;3.20;;;1.77;;
20478;SDS011;10398;52.490;13.434;2023-11-19T01:51:43;5.53;;;2.10;;
20478;SDS011;10398;52.490;13.434;2023-11-19T01:54:10;3.57;;;1.97;;
20478;SDS011;10398;52.490;13.434;2023-11-19T01:56:37;2.83;;;1.87;;
20478;SDS011;10398;52.490;13.434;2023-11-19T01:59:09;9.03;;;3.43;;
20478;SDS011;10398;52.490;13.434;2023-11-19T02:01:38;6.93;;;3.23;;
20478;SDS011;10398;52.490;13.434;2023-11-19T02:04:05;6.33;;;3.63;;
20478;SDS011;10398;52.490;13.434;2023-11-19T02:06:34;8.03;;;3.73;;
20478;SDS011;10398;52.490;13.434;2023-11-19T02:09:05;5.57;;;3.13;;
20478;SDS011;10398;52.490;13.434;2023-11-19T02:11:33;8.70;;;3.40;;
20478;SDS011;10398;52.490;13.434;2023-11-19T02:13:59;6.83;;;3.50;;
20478;SDS011;10398;52.490;13.434;2023-11-19T02:16:25;5.43;;;3.03;;
20478;SDS011;10398;52.490;13.434;2023-11-19T02:18:51;8.37;;;3.37;;
20478;SDS011;10398;52.490;13.434;2023-11-19T02:21:16;5.90;;;3.00;;
20478;SDS011;10398;52.490;13.434;2023-11-19T02:23:43;7.03;;;3.87;;
20478;SDS011;10398;52.490;13.434;2023-11-19T02:28:35;7.30;;;3.40;;
20478;SDS011;10398;52.490;13.434;2023-11-19T02:31:02;3.17;;;2.10;;
20478;SDS011;10398;52.490;13.434;2023-11-19T02:33:30;5.97;;;2.33;;
20478;SDS011;10398;52.490;13.434;2023-11-19T02:35:55;5.20;;;1.90;;
20478;SDS011;10398;52.490;13.434;2023-11-19T02:38:21;5.13;;;2.00;;
20478;SDS011;10398;52.490;13.434;2023-11-19T02:40:47;2.73;;;1.67;;
20478;SDS011;10398;52.490;13.434;2023-11-19T02:43:14;3.43;;;1.73;;
20478;SDS011;10398;52.490;13.434;2023-11-19T02:45:40;2.60;;;1.53;;
20478;SDS011;10398;52.490;13.434;2023-11-19T02:48:05;3.60;;;1.73;;
20478;SDS011;10398;52.490;13.434;2023-11-19T02:50:31;5.17;;;2.07;;
20478;SDS011;10398;52.490;13.434;2023-11-19T02:52:57;3.27;;;1.63;;
20478;SDS011;10398;52.490;13.434;2023-11-19T02:55:23;6.17;;;1.77;;
20478;SDS011;10398;52.490;13.434;2023-11-19T02:57:49;5.47;;;2.77;;
20478;SDS011;10398;52.490;13.434;2023-11-19T03:00:16;4.10;;;1.60;;
20478;SDS011;10398;52.490;13.434;2023-11-19T03:02:43;6.07;;;2.67;;
20478;SDS011;10398;52.490;13.434;2023-11-19T03:05:13;4.13;;;2.07;;
20478;SDS011;10398;52.490;13.434;2023-11-19T03:07:40;2.30;;;1.57;;
20478;SDS011;10398;52.490;13.434;2023-11-19T03:10:12;4.77;;;1.70;;
20478;SDS011;10398;52.490;13.434;2023-11-19T03:12:41;9.07;;;3.73;;
20478;SDS011;10398;52.490;13.434;2023-11-19T03:15:08;6.50;;;2.80;;
20478;SDS011;10398;52.490;13.434;2023-11-19T03:17:35;4.63;;;2.37;;
20478;SDS011;10398;52.490;13.434;2023-11-19T03:20:07;3.90;;;2.40;;
20478;SDS011;10398;52.490;13.434;2023-11-19T03:22:34;5.57;;;2.40;;
20478;SDS011;10398;52.490;13.434;2023-11-19T03:25:03;5.23;;;2.67;;
20478;SDS011;10398;52.490;13.434;2023-11-19T03:27:29;6.10;;;2.77;;
20478;SDS011;10398;52.490;13.434;2023-11-19T03:29:55;6.00;;;2.60;;
20478;SDS011;10398;52.490;13.434;2023-11-19T03:32:21;4.87;;;3.00;;
20478;SDS011;10398;52.490;13.434;2023-11-19T03:34:46;5.47;;;2.70;;
20478;SDS011;10398;52.490;13.434;2023-11-19T03:37:12;7.00;;;2.77;;
20478;SDS011;10398;52.490;13.434;2023-11-19T03:39:41;3.93;;;2.60;;
20478;SDS011;10398;52.490;13.434;2023-11-19T03:42:07;4.83;;;2.60;;
20478;SDS011;10398;52.490;13.434;2023-11-19T03:44:32;7.33;;;2.87;;
20478;SDS011;10398;52.490;13.434;2023-11-19T03:46:58;6.70;;;3.10;;
20478;SDS011;10398;52.490;13.434;2023-11-19T03:49:23;6.10;;;2.97;;
20478;SDS011;10398;52.490;13.434;2023-11-19T03:51:49;4.53;;;2.73;;
20478;SDS011;10398;52.490;13.434;2023-11-19T03:54:15;5.07;;;2.60;;
20478;SDS011;10398;52.490;13.434;2023-11-19T03:56:40;7.10;;;3.33;;
20478;SDS011;10398;52.490;13.434;2023-11-19T03:59:06;5.03;;;2.70;;
20478;SDS011;10398;52.490;13.434;2023-11-19T04:01:33;4.53;;;2.30;;
20478;SDS011;10398;52.490;13.434;2023-11-19T04:03:58;4.93;;;2.83;;
20478;SDS011;10398;52.490;13.434;2023-11-19T04:06:25;3.60;;;1.67;;
20478;SDS011;10398;52.490;13.434;2023-11-19T04:08:51;3.97;;;2.03;;
20478;SDS011;10398;52.490;13.434;2023-11-19T04:11:16;2.77;;;1.63;;
20478;SDS011;10398;52.490;13.434;2023-11-19T04:13:42;4.00;;;1.90;;
20478;SDS011;10398;52.490;13.434;2023-11-19T04:16:09;3.90;;;1.73;;
20478;SDS011;10398;52.490;13.434;2023-11-19T04:18:34;5.20;;;3.00;;
20478;SDS011;10398;52.490;13.434;2023-11-19T04:21:00;4.43;;;2.90;;
20478;SDS011;10398;52.490;13.434;2023-11-19T04:23:26;5.60;;;3.13;;
20478;SDS011;10398;52.490;13.434;2023-11-19T04:25:51;2.53;;;1.40;;
20478;SDS011;10398;52.490;13.434;2023-11-19T04:28:17;3.60;;;1.57;;
20478;SDS011;10398;52.490;13.434;2023-11-19T04:30:43;3.87;;;1.83;;
20478;SDS011;10398;52.490;13.434;2023-11-19T04:33:09;4.20;;;1.93;;
20478;SDS011;10398;52.490;13.434;2023-11-19T04:35:35;2.93;;;1.63;;
20478;SDS011;10398;52.490;13.434;2023-11-19T04:38:01;6.83;;;1.90;;
20478;SDS011;10398;52.490;13.434;2023-11-19T04:40:27;7.33;;;2.13;;
20478;SDS011;10398;52.490;13.434;2023-11-19T04:42:52;5.53;;;1.67;;
20478;SDS011;10398;52.490;13.434;2023-11-19T04:45:18;7.13;;;2.93;;
20478;SDS011;10398;52.490;13.434;2023-11-19T04:47:44;5.53;;;2.70;;
20478;SDS011;10398;52.490;13.434;2023-11-19T04:50:09;4.43;;;2.70;;
20478;SDS011;10398;52.490;13.434;2023-11-19T04:52:37;5.63;;;3.43;;
20478;SDS011;10398;52.490;13.434;2023-11-19T04:55:05;6.70;;;3.03;;
20478;SDS011;10398;52.490;13.434;2023-11-19T04:57:31;3.43;;;1.73;;
20478;SDS011;10398;52.490;13.434;2023-11-19T04:59:57;3.63;;;1.60;;
20478;SDS011;10398;52.490;13.434;2023-11-19T05:02:23;3.77;;;1.60;;
20478;SDS011;10398;52.490;13.434;2023-11-19T05:04:49;3.93;;;1.77;;
20478;SDS011;10398;52.490;13.434;2023-11-19T05:07:15;2.40;;;1.43;;
20478;SDS011;10398;52.490;13.434;2023-11-19T05:09:40;2.40;;;1.33;;
20478;SDS011;10398;52.490;13.434;2023-11-19T05:12:08;3.80;;;1.73;;
20478;SDS011;10398;52.490;13.434;2023-11-19T05:14:37;3.77;;;1.90;;
20478;SDS011;10398;52.490;13.434;2023-11-19T05:17:02;5.20;;;1.90;;
20478;SDS011;10398;52.490;13.434;2023-11-19T05:19:28;2.57;;;1.70;;
20478;SDS011;10398;52.490;13.434;2023-11-19T05:21:54;2.57;;;1.53;;
20478;SDS011;10398;52.490;13.434;2023-11-19T05:24:19;5.50;;;1.67;;
20478;SDS011;10398;52.490;13.434;2023-11-19T05:26:45;4.77;;;2.00;;
20478;SDS011;10398;52.490;13.434;2023-11-19T05:29:11;5.30;;;1.50;;
20478;SDS011;10398;52.490;13.434;2023-11-19T05:31:37;3.10;;;1.93;;
20478;SDS011;10398;52.490;13.434;2023-11-19T05:34:03;3.07;;;1.60;;
20478;SDS011;10398;52.490;13.434;2023-11-19T05:36:29;3.73;;;2.10;;
20478;SDS011;10398;52.490;13.434;2023-11-19T05:38:54;4.37;;;1.60;;
20478;SDS011;10398;52.490;13.434;2023-11-19T05:41:20;3.17;;;1.93;;
20478;SDS011;10398;52.490;13.434;2023-11-19T05:43:46;3.03;;;1.33;;
20478;SDS011;10398;52.490;13.434;2023-11-19T05:46:11;5.03;;;1.57;;
20478;SDS011;10398;52.490;13.434;2023-11-19T05:48:38;4.27;;;1.30;;
20478;SDS011;10398;52.490;13.434;2023-11-19T05:51:04;2.80;;;1.33;;
20478;SDS011;10398;52.490;13.434;2023-11-19T05:53:30;3.67;;;1.57;;
20478;SDS011;10398;52.490;13.434;2023-11-19T05:55:56;3.77;;;1.80;;
20478;SDS011;10398;52.490;13.434;2023-11-19T05:58:25;5.33;;;1.80;;
20478;SDS011;10398;52.490;13.434;2023-11-19T06:00:53;4.37;;;2.10;;
20478;SDS011;10398;52.490;13.434;2023-11-19T06:03:20;2.07;;;1.23;;
20478;SDS011;10398;52.490;13.434;2023-11-19T06:05:46;4.30;;;1.53;;
20478;SDS011;10398;52.490;13.434;2023-11-19T06:08:13;4.53;;;1.90;;
20478;SDS011;10398;52.490;13.434;2023-11-19T06:10:43;3.80;;;1.67;;
20478;SDS011;10398;52.490;13.434;2023-11-19T06:13:11;4.03;;;1.57;;
20478;SDS011;10398;52.490;13.434;2023-11-19T06:15:38;2.60;;;1.27;;
20478;SDS011;10398;52.490;13.434;2023-11-19T06:18:05;5.00;;;2.40;;
20478;SDS011;10398;52.490;13.434;2023-11-19T06:20:30;4.00;;;1.43;;
20478;SDS011;10398;52.490;13.434;2023-11-19T06:22:57;3.17;;;1.50;;
20478;SDS011;10398;52.490;13.434;2023-11-19T06:25:23;4.60;;;2.20;;
20478;SDS011;10398;52.490;13.434;2023-11-19T06:27:49;6.60;;;2.10;;
20478;SDS011;10398;52.490;13.434;2023-11-19T06:30:15;2.80;;;1.87;;
20478;SDS011;10398;52.490;13.434;2023-11-19T06:32:41;4.27;;;1.57;;
20478;SDS011;10398;52.490;13.434;2023-11-19T06:35:07;2.53;;;1.40;;
20478;SDS011;10398;52.490;13.434;2023-11-19T06:37:34;3.07;;;1.57;;
20478;SDS011;10398;52.490;13.434;2023-11-19T06:39:59;6.47;;;1.30;;
20478;SDS011;10398;52.490;13.434;2023-11-19T06:42:25;2.47;;;1.50;;
20478;SDS011;10398;52.490;13.434;2023-11-19T06:44:51;2.97;;;1.50;;
20478;SDS011;10398;52.490;13.434;2023-11-19T06:47:17;2.60;;;1.50;;
20478;SDS011;10398;52.490;13.434;2023-11-19T06:49:46;6.07;;;1.83;;
20478;SDS011;10398;52.490;13.434;2023-11-19T06:52:11;2.77;;;1.20;;
20478;SDS011;10398;52.490;13.434;2023-11-19T06:54:40;2.40;;;1.17;;
20478;SDS011;10398;52.490;13.434;2023-11-19T06:57:06;3.03;;;1.80;;
20478;SDS011;10398;52.490;13.434;2023-11-19T06:59:32;3.23;;;1.40;;
20478;SDS011;10398;52.490;13.434;2023-11-19T07:01:58;1.97;;;1.30;;
20478;SDS011;10398;52.490;13.434;2023-11-19T07:04:24;3.17;;;1.10;;
20478;SDS011;10398;52.490;13.434;2023-11-19T07:06:50;2.33;;;1.40;;
20478;SDS011;10398;52.490;13.434;2023-11-19T07:09:17;1.80;;;1.20;;
20478;SDS011;10398;52.490;13.434;2023-11-19T07:11:43;2.53;;;1.27;;
20478;SDS011;10398;52.490;13.434;2023-11-19T07:14:11;3.93;;;1.47;;
20478;SDS011;10398;52.490;13.434;2023-11-19T07:16:37;2.00;;;1.30;;
20478;SDS011;10398;52.490;13.434;2023-11-19T07:19:04;2.80;;;1.70;;
20478;SDS011;10398;52.490;13.434;2023-11-19T07:21:30;3.17;;;1.47;;
20478;SDS011;10398;52.490;13.434;2023-11-19T07:23:57;4.63;;;1.83;;
20478;SDS011;10398;52.490;13.434;2023-11-19T07:26:23;2.17;;;1.20;;
20478;SDS011;10398;52.490;13.434;2023-11-19T07:28:50;2.80;;;1.43;;
20478;SDS011;10398;52.490;13.434;2023-11-19T07:31:16;4.47;;;1.63;;
20478;SDS011;10398;52.490;13.434;2023-11-19T07:33:41;1.83;;;1.10;;
20478;SDS011;10398;52.490;13.434;2023-11-19T07:36:10;2.83;;;1.53;;
20478;SDS011;10398;52.490;13.434;2023-11-19T07:38:37;2.57;;;1.20;;
20478;SDS011;10398;52.490;13.434;2023-11-19T07:41:03;1.70;;;1.07;;
20478;SDS011;10398;52.490;13.434;2023-11-19T07:43:30;1.53;;;1.00;;
20478;SDS011;10398;52.490;13.434;2023-11-19T07:45:56;1.80;;;1.33;;
20478;SDS011;10398;52.490;13.434;2023-11-19T07:48:24;5.37;;;2.07;;
20478;SDS011;10398;52.490;13.434;2023-11-19T07:50:51;5.70;;;2.03;;
20478;SDS011;10398;52.490;13.434;2023-11-19T07:53:18;2.47;;;1.27;;
20478;SDS011;10398;52.490;13.434;2023-11-19T07:55:44;2.60;;;1.57;;
20478;SDS011;10398;52.490;13.434;2023-11-19T07:58:10;5.33;;;1.97;;
20478;SDS011;10398;52.490;13.434;2023-11-19T08:00:36;2.20;;;1.10;;
20478;SDS011;10398;52.490;13.434;2023-11-19T08:03:02;1.90;;;1.40;;
20478;SDS011;10398;52.490;13.434;2023-11-19T08:05:28;2.50;;;1.40;;
20478;SDS011;10398;52.490;13.434;2023-11-19T08:07:54;3.27;;;1.80;;
20478;SDS011;10398;52.490;13.434;2023-11-19T08:10:19;2.60;;;1.33;;
20478;SDS011;10398;52.490;13.434;2023-11-19T08:12:45;4.43;;;1.50;;
20478;SDS011;10398;52.490;13.434;2023-11-19T08:15:11;2.83;;;1.50;;
20478;SDS011;10398;52.490;13.434;2023-11-19T08:17:37;2.13;;;1.20;;
20478;SDS011;10398;52.490;13.434;2023-11-19T08:20:03;2.47;;;1.47;;
20478;SDS011;10398;52.490;13.434;2023-11-19T08:22:30;3.93;;;1.20;;
20478;SDS011;10398;52.490;13.434;2023-11-19T08:24:56;3.73;;;1.83;;
20478;SDS011;10398;52.490;13.434;2023-11-19T08:27:22;2.77;;;1.30;;
20478;SDS011;10398;52.490;13.434;2023-11-19T08:29:54;2.60;;;1.30;;
20478;SDS011;10398;52.490;13.434;2023-11-19T08:32:26;3.63;;;1.37;;
20478;SDS011;10398;52.490;13.434;2023-11-19T08:34:52;4.33;;;1.93;;
20478;SDS011;10398;52.490;13.434;2023-11-19T08:37:18;4.20;;;1.50;;
20478;SDS011;10398;52.490;13.434;2023-11-19T08:39:48;3.27;;;1.70;;
20478;SDS011;10398;52.490;13.434;2023-11-19T08:42:15;3.13;;;1.47;;
20478;SDS011;10398;52.490;13.434;2023-11-19T08:44:41;4.33;;;1.97;;
20478;SDS011;10398;52.490;13.434;2023-11-19T08:47:12;2.63;;;1.60;;
20478;SDS011;10398;52.490;13.434;2023-11-19T08:49:38;3.27;;;1.67;;
20478;SDS011;10398;52.490;13.434;2023-11-19T08:52:04;3.23;;;1.67;;
20478;SDS011;10398;52.490;13.434;2023-11-19T08:54:32;4.80;;;2.03;;
20478;SDS011;10398;52.490;13.434;2023-11-19T08:56:58;3.20;;;1.87;;
20478;SDS011;10398;52.490;13.434;2023-11-19T08:59:24;3.40;;;1.37;;
20478;SDS011;10398;52.490;13.434;2023-11-19T09:01:50;3.43;;;1.80;;
20478;SDS011;10398;52.490;13.434;2023-11-19T09:04:16;5.13;;;1.93;;
20478;SDS011;10398;52.490;13.434;2023-11-19T09:06:41;3.13;;;1.77;;
20478;SDS011;10398;52.490;13.434;2023-11-19T09:09:08;4.00;;;1.80;;
20478;SDS011;10398;52.490;13.434;2023-11-19T09:11:34;5.57;;;2.17;;
20478;SDS011;10398;52.490;13.434;2023-11-19T09:14:01;4.53;;;1.90;;
20478;SDS011;10398;52.490;13.434;2023-11-19T09:16:27;2.50;;;1.10;;
20478;SDS011;10398;52.490;13.434;2023-11-19T09:18:53;3.23;;;1.80;;
20478;SDS011;10398;52.490;13.434;2023-11-19T09:21:18;2.10;;;1.30;;
20478;SDS011;10398;52.490;13.434;2023-11-19T09:23:44;4.10;;;1.60;;
20478;SDS011;10398;52.490;13.434;2023-11-19T09:26:10;3.03;;;1.30;;
20478;SDS011;10398;52.490;13.434;2023-11-19T09:28:35;3.13;;;1.67;;
20478;SDS011;10398;52.490;13.434;2023-11-19T09:31:01;4.77;;;1.83;;
20478;SDS011;10398;52.490;13.434;2023-11-19T09:33:29;2.37;;;1.43;;
20478;SDS011;10398;52.490;13.434;2023-11-19T09:35:55;2.17;;;1.10;;
20478;SDS011;10398;52.490;13.434;2023-11-19T09:38:22;1.30;;;1.10;;
20478;SDS011;10398;52.490;13.434;2023-11-19T09:40:48;6.20;;;2.00;;
20478;SDS011;10398;52.490;13.434;2023-11-19T09:43:17;2.80;;;1.27;;
20478;SDS011;10398;52.490;13.434;2023-11-19T09:45:50;2.77;;;1.67;;
20478;SDS011;10398;52.490;13.434;2023-11-19T09:48:16;2.97;;;1.30;;
20478;SDS011;10398;52.490;13.434;2023-11-19T09:50:44;3.57;;;1.60;;
20478;SDS011;10398;52.490;13.434;2023-11-19T09:53:13;4.07;;;1.77;;
20478;SDS011;10398;52.490;13.434;2023-11-19T09:55:40;3.13;;;1.60;;
20478;SDS011;10398;52.490;13.434;2023-11-19T09:58:07;4.97;;;1.63;;
20478;SDS011;10398;52.490;13.434;2023-11-19T10:00:33;8.87;;;1.70;;
20478;SDS011;10398;52.490;13.434;2023-11-19T10:02:59;6.77;;;2.77;;
20478;SDS011;10398;52.490;13.434;2023-11-19T10:05:25;12.97;;;3.77;;
20478;SDS011;10398;52.490;13.434;2023-11-19T10:07:51;5.33;;;2.17;;
20478;SDS011;10398;52.490;13.434;2023-11-19T10:10:17;4.50;;;2.53;;
20478;SDS011;10398;52.490;13.434;2023-11-19T10:12:47;4.57;;;1.60;;
20478;SDS011;10398;52.490;13.434;2023-11-19T10:15:22;4.80;;;1.93;;
20478;SDS011;10398;52.490;13.434;2023-11-19T10:17:55;6.17;;;1.30;;
20478;SDS011;10398;52.490;13.434;2023-11-19T10:20:21;4.23;;;1.47;;
20478;SDS011;10398;52.490;13.434;2023-11-19T10:22:47;6.83;;;2.17;;
20478;SDS011;10398;52.490;13.434;2023-11-19T10:25:23;5.97;;;1.20;;
20478;SDS011;10398;52.490;13.434;2023-11-19T10:27:53;3.30;;;1.40;;
20478;SDS011;10398;52.490;13.434;2023-11-19T10:30:23;5.37;;;1.40;;
20478;SDS011;10398;52.490;13.434;2023-11-19T10:33:04;2.97;;;1.37;;
20478;SDS011;10398;52.490;13.434;2023-11-19T10:35:33;4.63;;;1.40;;
20478;SDS011;10398;52.490;13.434;2023-11-19T10:38:00;5.20;;;1.30;;
20478;SDS011;10398;52.490;13.434;2023-11-19T10:40:41;3.20;;;1.13;;
20478;SDS011;10398;52.490;13.434;2023-11-19T10:43:07;2.50;;;1.23;;
20478;SDS011;10398;52.490;13.434;2023-11-19T10:45:33;3.53;;;1.17;;
20478;SDS011;10398;52.490;13.434;2023-11-19T10:47:59;6.23;;;1.27;;
20478;SDS011;10398;52.490;13.434;2023-11-19T10:50:27;3.13;;;1.03;;
20478;SDS011;10398;52.490;13.434;2023-11-19T10:52:56;6.20;;;1.40;;
20478;SDS011;10398;52.490;13.434;2023-11-19T10:55:28;3.70;;;1.00;;
20478;SDS011;10398;52.490;13.434;2023-11-19T10:57:59;6.63;;;1.20;;
20478;SDS011;10398;52.490;13.434;2023-11-19T11:00:26;7.87;;;1.20;;
20478;SDS011;10398;52.490;13.434;2023-11-19T11:02:59;7.80;;;2.03;;
20478;SDS011;10398;52.490;13.434;2023-11-19T11:05:26;3.60;;;1.57;;
20478;SDS011;10398;52.490;13.434;2023-11-19T11:07:54;12.40;;;2.10;;
20478;SDS011;10398;52.490;13.434;2023-11-19T11:10:20;3.50;;;1.57;;
20478;SDS011;10398;52.490;13.434;2023-11-19T11:12:51;7.40;;;1.57;;
20478;SDS011;10398;52.490;13.434;2023-11-19T11:15:22;5.37;;;1.60;;
20478;SDS011;10398;52.490;13.434;2023-11-19T11:17:57;8.63;;;1.47;;
20478;SDS011;10398;52.490;13.434;2023-11-19T11:20:31;7.13;;;1.30;;
20478;SDS011;10398;52.490;13.434;2023-11-19T11:26:00;4.80;;;1.97;;
20478;SDS011;10398;52.490;13.434;2023-11-19T11:36:49;8.30;;;1.53;;
20478;SDS011;10398;52.490;13.434;2023-11-19T11:39:24;5.30;;;1.67;;
20478;SDS011;10398;52.490;13.434;2023-11-19T11:45:05;14.53;;;1.60;;
20478;SDS011;10398;52.490;13.434;2023-11-19T11:50:13;5.53;;;1.50;;
20478;SDS011;10398;52.490;13.434;2023-11-19T11:55:26;7.63;;;1.93;;
20478;SDS011;10398;52.490;13.434;2023-11-19T11:58:12;9.20;;;1.97;;
20478;SDS011;10398;52.490;13.434;2023-11-19T12:00:39;19.00;;;2.40;;
20478;SDS011;10398;52.490;13.434;2023-11-19T12:03:07;11.47;;;2.53;;
20478;SDS011;10398;52.490;13.434;2023-11-19T12:05:33;14.03;;;1.90;;
20478;SDS011;10398;52.490;13.434;2023-11-19T12:08:12;12.20;;;1.87;;
20478;SDS011;10398;52.490;13.434;2023-11-19T12:10:44;6.83;;;1.60;;
20478;SDS011;10398;52.490;13.434;2023-11-19T12:13:12;10.20;;;1.80;;
20478;SDS011;10398;52.490;13.434;2023-11-19T12:18:31;5.20;;;1.60;;
20478;SDS011;10398;52.490;13.434;2023-11-19T12:20:58;21.13;;;1.97;;
20478;SDS011;10398;52.490;13.434;2023-11-19T12:23:29;8.73;;;2.10;;
20478;SDS011;10398;52.490;13.434;2023-11-19T12:25:56;9.33;;;1.97;;
20478;SDS011;10398;52.490;13.434;2023-11-19T12:28:23;16.10;;;2.33;;
20478;SDS011;10398;52.490;13.434;2023-11-19T12:30:51;7.70;;;1.73;;
20478;SDS011;10398;52.490;13.434;2023-11-19T12:33:18;7.80;;;1.67;;
20478;SDS011;10398;52.490;13.434;2023-11-19T12:35:45;12.80;;;2.23;;
20478;SDS011;10398;52.490;13.434;2023-11-19T12:38:18;10.10;;;1.53;;
20478;SDS011;10398;52.490;13.434;2023-11-19T12:41:02;9.73;;;1.97;;
20478;SDS011;10398;52.490;13.434;2023-11-19T12:43:31;7.67;;;1.93;;
20478;SDS011;10398;52.490;13.434;2023-11-19T12:45:59;10.33;;;2.50;;
20478;SDS011;10398;52.490;13.434;2023-11-19T12:48:25;9.57;;;2.23;;
20478;SDS011;10398;52.490;13.434;2023-11-19T12:50:54;16.33;;;3.00;;
20478;SDS011;10398;52.490;13.434;2023-11-19T12:53:25;18.30;;;2.67;;
20478;SDS011;10398;52.490;13.434;2023-11-19T12:55:51;11.03;;;2.30;;
20478;SDS011;10398;52.490;13.434;2023-11-19T13:01:01;7.87;;;1.70;;
20478;SDS011;10398;52.490;13.434;2023-11-19T13:03:29;12.40;;;2.67;;
20478;SDS011;10398;52.490;13.434;2023-11-19T13:06:06;8.57;;;1.93;;
20478;SDS011;10398;52.490;13.434;2023-11-19T13:08:48;8.33;;;2.63;;
20478;SDS011;10398;52.490;13.434;2023-11-19T13:11:30;10.83;;;1.93;;
20478;SDS011;10398;52.490;13.434;2023-11-19T13:14:00;7.63;;;1.70;;
20478;SDS011;10398;52.490;13.434;2023-11-19T13:16:30;8.97;;;1.90;;
20478;SDS011;10398;52.490;13.434;2023-11-19T13:18:57;17.43;;;2.33;;
20478;SDS011;10398;52.490;13.434;2023-11-19T13:21:24;8.27;;;2.63;;
20478;SDS011;10398;52.490;13.434;2023-11-19T13:23:50;11.13;;;3.33;;
20478;SDS011;10398;52.490;13.434;2023-11-19T13:26:15;9.40;;;2.10;;
20478;SDS011;10398;52.490;13.434;2023-11-19T13:28:41;7.37;;;1.60;;
20478;SDS011;10398;52.490;13.434;2023-11-19T13:31:07;16.03;;;2.77;;
20478;SDS011;10398;52.490;13.434;2023-11-19T13:33:33;16.00;;;2.60;;
20478;SDS011;10398;52.490;13.434;2023-11-19T13:35:59;10.47;;;1.73;;
20478;SDS011;10398;52.490;13.434;2023-11-19T13:38:30;18.73;;;2.03;;
20478;SDS011;10398;52.490;13.434;2023-11-19T13:41:02;8.77;;;1.87;;
20478;SDS011;10398;52.490;13.434;2023-11-19T13:43:29;15.70;;;2.10;;
20478;SDS011;10398;52.490;13.434;2023-11-19T13:45:55;9.03;;;1.90;;
20478;SDS011;10398;52.490;13.434;2023-11-19T13:48:21;9.10;;;1.67;;
20478;SDS011;10398;52.490;13.434;2023-11-19T13:50:47;16.27;;;2.70;;
20478;SDS011;10398;52.490;13.434;2023-11-19T13:53:13;11.40;;;2.53;;
20478;SDS011;10398;52.490;13.434;2023-11-19T13:55:39;16.93;;;2.07;;
20478;SDS011;10398;52.490;13.434;2023-11-19T13:58:04;16.43;;;2.00;;
20478;SDS011;10398;52.490;13.434;2023-11-19T14:00:30;11.00;;;2.10;;
20478;SDS011;10398;52.490;13.434;2023-11-19T14:02:56;18.47;;;2.90;;
20478;SDS011;10398;52.490;13.434;2023-11-19T14:05:22;12.60;;;3.10;;
20478;SDS011;10398;52.490;13.434;2023-11-19T14:07:48;12.20;;;2.20;;
20478;SDS011;10398;52.490;13.434;2023-11-19T14:10:15;21.20;;;2.60;;
20478;SDS011;10398;52.490;13.434;2023-11-19T14:12:41;13.80;;;2.93;;
20478;SDS011;10398;52.490;13.434;2023-11-19T14:15:07;8.33;;;2.20;;
20478;SDS011;10398;52.490;13.434;2023-11-19T14:17:42;9.13;;;2.80;;
20478;SDS011;10398;52.490;13.434;2023-11-19T14:20:08;13.23;;;2.53;;
20478;SDS011;10398;52.490;13.434;2023-11-19T14:22:42;17.57;;;3.00;;
20478;SDS011;10398;52.490;13.434;2023-11-19T14:25:09;12.37;;;2.17;;
20478;SDS011;10398;52.490;13.434;2023-11-19T14:27:39;12.23;;;2.93;;
20478;SDS011;10398;52.490;13.434;2023-11-19T14:30:07;13.40;;;2.10;;
20478;SDS011;10398;52.490;13.434;2023-11-19T14:32:36;19.33;;;4.17;;
20478;SDS011;10398;52.490;13.434;2023-11-19T14:35:02;19.93;;;3.77;;
20478;SDS011;10398;52.490;13.434;2023-11-19T14:37:29;14.37;;;2.97;;
20478;SDS011;10398;52.490;13.434;2023-11-19T14:39:58;9.13;;;2.40;;
20478;SDS011;10398;52.490;13.434;2023-11-19T14:42:24;18.87;;;2.47;;
20478;SDS011;10398;52.490;13.434;2023-11-19T14:44:53;14.43;;;3.07;;
20478;SDS011;10398;52.490;13.434;2023-11-19T14:47:19;23.87;;;4.17;;
20478;SDS011;10398;52.490;13.434;2023-11-19T14:49:45;16.00;;;3.13;;
20478;SDS011;10398;52.490;13.434;2023-11-19T14:52:11;16.07;;;3.47;;
20478;SDS011;10398;52.490;13.434;2023-11-19T14:54:37;12.93;;;2.40;;
20478;SDS011;10398;52.490;13.434;2023-11-19T14:57:05;12.00;;;2.97;;
20478;SDS011;10398;52.490;13.434;2023-11-19T14:59:33;26.07;;;3.77;;
20478;SDS011;10398;52.490;13.434;2023-11-19T15:01:59;20.30;;;2.50;;